createdAt,value
2022-12-08T02:54:51.725Z,92.52
2022-12-08T02:58:11.036Z,92.39
2022-12-08T03:01:15.976Z,92.34
2022-12-08T03:04:41.362Z,91.90
2022-12-08T03:08:00.640Z,91.96
2022-12-08T03:11:21.740Z,91.88
2022-12-08T03:14:24.955Z,91.46
2022-12-08T03:17:29.699Z,91.78
2022-12-08T03:20:34.630Z,91.07
2022-12-08T03:23:38.252Z,90.49
2022-12-08T03:26:50.560Z,89.89
2022-12-08T03:29:55.203Z,90.26
2022-12-08T03:33:31.578Z,89.41
2022-12-08T03:36:33.806Z,89.13
2022-12-08T03:39:35.688Z,89.28
2022-12-08T03:42:37.632Z,88.26
2022-12-08T03:45:39.537Z,88.69
2022-12-08T03:48:41.455Z,89.77
2022-12-08T03:51:43.624Z,89.31
2022-12-08T03:54:45.584Z,89.03
2022-12-08T03:57:47.518Z,90.57
2022-12-08T04:00:49.859Z,89.79
2022-12-08T04:03:52.203Z,89.20
2022-12-08T04:06:54.076Z,88.73
2022-12-08T04:09:55.908Z,89.02
2022-12-08T04:12:57.967Z,89.23
2022-12-08T04:15:59.995Z,88.32
2022-12-08T04:19:01.898Z,89.78
2022-12-08T04:22:03.909Z,90.13
2022-12-08T04:25:06.348Z,88.69
2022-12-08T04:28:08.419Z,89.17
2022-12-08T04:31:11.010Z,89.24
2022-12-08T04:34:12.927Z,89.27
2022-12-08T04:37:14.781Z,88.37
2022-12-08T04:40:16.796Z,88.27
2022-12-08T04:43:19.007Z,88.12
2022-12-08T04:46:20.926Z,88.77
2022-12-08T04:49:22.775Z,88.31
2022-12-08T04:52:24.644Z,87.96
2022-12-08T06:01:26.215Z,94.06
2022-12-08T06:04:28.311Z,93.94
2022-12-08T06:07:30.204Z,94.14
2022-12-08T06:10:32.111Z,93.84
2022-12-08T06:13:34.289Z,93.49
2022-12-08T06:16:36.444Z,93.39
2022-12-08T06:19:38.566Z,93.91
2022-12-08T06:22:40.356Z,94.18
2022-12-08T06:25:42.192Z,94.02
2022-12-08T06:28:44.654Z,94.01
2022-12-08T06:31:46.620Z,93.88
2022-12-08T06:34:48.712Z,93.54
2022-12-08T06:37:51.771Z,93.62
2022-12-08T06:40:58.029Z,92.99
2022-12-08T06:43:59.939Z,92.85
2022-12-08T06:47:01.799Z,92.83
2022-12-08T06:50:04.893Z,92.67
2022-12-08T06:53:07.170Z,92.64
2022-12-08T06:56:10.146Z,92.97
2022-12-08T06:59:12.142Z,92.70
2022-12-08T07:02:14.177Z,92.56
2022-12-08T07:05:16.157Z,92.34
2022-12-08T07:08:18.353Z,92.62
2022-12-08T07:11:22.377Z,92.21
2022-12-08T07:14:25.073Z,92.52
2022-12-08T07:17:27.082Z,92.67
2022-12-08T07:20:29.268Z,92.86
2022-12-08T07:23:31.268Z,92.51
2022-12-08T07:26:33.159Z,91.13
2022-12-08T07:29:35.266Z,90.18
2022-12-08T07:32:38.426Z,90.94
2022-12-08T07:35:43.827Z,91.59
2022-12-08T07:38:48.970Z,92.23
2022-12-08T07:41:50.864Z,92.11
2022-12-08T07:44:52.962Z,92.17
2022-12-08T07:47:54.856Z,91.25
2022-12-08T07:51:02.384Z,90.75
2022-12-08T07:54:04.517Z,90.45
2022-12-08T07:57:06.632Z,91.24
2022-12-08T08:00:10.649Z,90.87
2022-12-08T09:14:35.344Z,91.80
2022-12-08T09:17:38.246Z,92.09
2022-12-08T09:20:40.235Z,91.20
2022-12-08T09:23:43.203Z,91.90
2022-12-08T09:26:45.177Z,91.16
2022-12-08T09:29:50.920Z,91.15
2022-12-08T09:32:53.149Z,91.24
2022-12-08T09:35:55.131Z,91.10
2022-12-08T09:38:57.339Z,90.89
2022-12-08T09:42:05.173Z,91.67
2022-12-08T09:45:12.888Z,90.41
2022-12-08T09:48:23.015Z,91.73
2022-12-08T09:51:27.809Z,91.53
2022-12-08T09:54:34.629Z,90.91
2022-12-08T09:57:37.183Z,91.32
2022-12-08T10:00:40.061Z,91.00
2022-12-08T10:03:42.881Z,91.56
2022-12-08T10:07:12.957Z,91.40
2022-12-08T10:10:27.533Z,90.72
2022-12-08T10:13:44.321Z,91.17
2022-12-08T10:16:49.701Z,91.08
2022-12-08T10:19:59.976Z,91.51
2022-12-08T10:23:15.818Z,91.57
2022-12-08T10:26:20.387Z,91.39
2022-12-08T10:29:22.435Z,91.71
2022-12-08T10:32:24.742Z,91.53
2022-12-08T10:35:52.952Z,90.19
2022-12-08T10:38:54.860Z,89.46
2022-12-08T10:42:07.578Z,90.76
2022-12-08T10:45:09.441Z,90.28
2022-12-08T10:48:31.318Z,91.27
2022-12-08T10:51:33.338Z,91.34
2022-12-08T10:54:38.403Z,90.38
2022-12-08T10:57:40.230Z,90.59
2022-12-08T11:00:42.196Z,91.18
2022-12-08T11:03:54.180Z,91.15
2022-12-08T11:06:56.184Z,90.22
2022-12-08T11:09:59.127Z,90.28
2022-12-08T11:54:09.071Z,90.54
2022-12-08T11:57:16.625Z,90.71
2022-12-08T12:00:19.184Z,90.65
2022-12-08T12:03:29.999Z,90.87
2022-12-08T12:06:54.783Z,90.86
2022-12-08T12:09:56.820Z,90.74
2022-12-08T12:13:16.819Z,90.70
2022-12-08T12:16:40.872Z,90.61
2022-12-08T12:19:43.937Z,91.14
2022-12-08T12:22:50.876Z,91.13
2022-12-08T12:26:00.038Z,91.03
2022-12-08T12:29:13.328Z,90.87
2022-12-08T12:32:15.367Z,90.37
2022-12-08T12:35:32.244Z,90.67
2022-12-08T12:38:59.110Z,89.85
2022-12-08T12:42:05.003Z,90.09
2022-12-08T12:45:16.205Z,88.32
2022-12-08T12:48:24.709Z,88.16
2022-12-08T12:51:45.613Z,87.82
2022-12-08T12:54:50.345Z,88.04
2022-12-08T12:57:57.733Z,86.45
2022-12-08T13:01:11.983Z,86.64
2022-12-08T13:04:14.511Z,86.98
2022-12-08T13:07:26.740Z,87.79
2022-12-08T13:10:33.240Z,87.76
2022-12-08T13:13:36.105Z,86.32
2022-12-08T13:16:39.601Z,88.64
2022-12-08T13:19:45.372Z,88.93
2022-12-08T13:23:12.560Z,88.40
2022-12-08T13:26:24.671Z,88.04
2022-12-08T13:29:26.843Z,87.83
2022-12-08T13:32:29.336Z,88.26
2022-12-08T13:35:42.107Z,88.22
2022-12-08T13:38:48.177Z,87.56
2022-12-08T13:42:05.771Z,88.17
2022-12-08T13:59:35.511Z,87.81
2022-12-08T14:02:47.105Z,87.58
2022-12-08T14:06:11.814Z,88.55
2022-12-08T14:09:16.334Z,89.41
2022-12-08T14:12:24.786Z,89.27
2022-12-08T14:15:30.214Z,90.12
2022-12-08T14:18:36.179Z,90.55
2022-12-08T14:21:38.177Z,89.29
2022-12-08T14:24:44.284Z,89.54
2022-12-08T14:27:47.874Z,89.06
2022-12-08T14:30:50.718Z,88.59
2022-12-08T14:33:56.515Z,88.33
2022-12-08T14:36:59.076Z,88.15
2022-12-08T14:40:10.479Z,87.04
2022-12-08T14:43:15.203Z,85.96
2022-12-08T14:46:22.430Z,86.44
2022-12-08T14:49:36.324Z,85.35
2022-12-08T14:52:43.908Z,85.89
2022-12-08T14:55:47.972Z,86.03
2022-12-08T14:59:03.163Z,85.74
2022-12-08T15:02:21.710Z,85.55
2022-12-08T15:05:33.039Z,85.20
2022-12-08T15:08:50.148Z,84.77
2022-12-08T15:12:26.144Z,84.89
2022-12-08T15:15:30.681Z,84.37
2022-12-08T15:18:38.779Z,84.72
2022-12-08T15:21:40.660Z,84.60
2022-12-08T15:24:42.517Z,85.21
2022-12-08T15:27:50.590Z,85.52
2022-12-08T15:30:53.133Z,85.45
2022-12-08T15:33:55.052Z,85.25
2022-12-08T15:36:56.980Z,84.88
2022-12-08T15:39:59.011Z,85.97
2022-12-08T15:43:00.814Z,85.59
2022-12-08T15:46:04.934Z,86.28
2022-12-08T15:49:06.828Z,86.49
2022-12-08T15:52:23.716Z,87.18
